Redville, Wisconsin
Current Conditions -  °F | °C
As of 10:55 PM on Sunday 21 Dec 2014 (Local Time) from KMDZ Reporting Station
Drizzle Drizzle  
Wind Chill: 23°   Ceiling: 300
Heat Index: 32°   Visibility: 2mi
Dew Point: 32°   Wind: 13mph
Humidity: 99%   Direction: 160°SSE
Pressure: 29.83"   Gusts: NA
Location:  45.0116°N, 90.6109°W
Report Text: KMDZ 220455Z AUTO 16011KT 2SM -DZ OVC003 00/00 A2983 RMK AO2 T00020000
Loading
Personal Weather Stations






























Interactive Weather Map New forecast layout! Learn more

10-Day Weather Forecast

Advertisements
Track Severe Weather on mobile